Weather reports worldwide

Advertisment
East malling, United Kingdom (99008): temperature & dewpoint: 14.06.2019 13:00:00 - 20.06.2019 13:00:00 (BST)East malling, United Kingdom (99008): temperature -20cm: 14.06.2019 13:00:00 - 20.06.2019 13:00:00 (BST)East malling, United Kingdom (99008): wind speed & gusts: 14.06.2019 13:00:00 - 20.06.2019 13:00:00 (BST)East malling, United Kingdom (99008): wind direction: 14.06.2019 13:00:00 - 20.06.2019 13:00:00 (BST)East malling, United Kingdom (99008): reduced air pressure: 14.06.2019 13:00:00 - 20.06.2019 13:00:00 (BST)East malling, United Kingdom (99008): sunshine duration: 14.06.2019 13:00:00 - 20.06.2019 13:00:00 (BST)East malling, United Kingdom (99008): precipitation: 14.06.2019 13:00:00 - 20.06.2019 13:00:00 (BST)
Date & Time tt [°C] td [°C] tt -20cm [°C] ff [km/h] ff [kn] fx [km/h] fx [kn] dd ppp [hPa] sd [min] rr [mm]
20.06.2019 13:00:00 - - - - - - - - - - -
20.06.2019 12:00:00 18,6 10,1 - 13 7 - - W 1012,8 48 0,0
20.06.2019 11:00:00 17,5 9,7 - 15 8 - - W 1012,6 42 0,0
20.06.2019 10:00:00 16,8 10,0 17,2 16 9 - - W 1012,3 60 0,0
20.06.2019 09:00:00 15,4 10,4 - 16 9 - - W 1012,0 54 0,0
20.06.2019 08:00:00 15,1 11,5 - 11 6 - - W 1011,4 60 0,0
20.06.2019 07:00:00 13,8 12,3 - 8 4 - - W 1011,0 42 0,0
20.06.2019 06:00:00 13,3 12,3 - 9 5 - - W 1010,6 12 0,0
20.06.2019 05:00:00 13,9 13,0 - 8 4 - - WSW 1010,2 6 0,0
20.06.2019 04:00:00 14,4 13,9 - 8 4 - - SW 1009,8 0 0,0
20.06.2019 03:00:00 14,6 14,0 - 4 2 - - WSW 1009,7 0 0,2
20.06.2019 02:00:00 14,6 13,9 - 8 4 - - W 1009,7 0 0,2
20.06.2019 01:00:00 14,6 14,0 - 9 5 - - W 1009,7 - 5,2
20.06.2019 00:00:00 15,2 14,6 - 9 5 - - WSW 1009,5 0 0,8
19.06.2019 23:00:00 15,4 14,7 - 2 1 - - SSW 1009,4 0 1,2
19.06.2019 22:00:00 15,7 14,9 - 9 5 - - WSW 1009,2 0 2,4
19.06.2019 21:00:00 16,7 14,9 - 9 5 - - SW 1008,6 0 0,0
19.06.2019 20:00:00 16,9 14,5 - 8 4 - - W 1008,2 0 0,2
19.06.2019 19:00:00 19,3 14,0 - 8 4 - - W 1007,9 6 0,0
19.06.2019 18:00:00 19,7 13,8 - 13 7 - - W 1007,3 12 0,0
19.06.2019 17:00:00 19,7 14,3 - 9 5 - - W 1007,4 12 0,0
19.06.2019 16:00:00 20,4 14,8 - 8 4 - - WSW 1007,4 18 0,0
19.06.2019 15:00:00 19,4 15,1 - 9 5 - - WNW 1007,8 18 0,0
19.06.2019 14:00:00 18,4 14,6 - 5 3 - - NW 1007,7 0 0,0
19.06.2019 13:00:00 18,0 15,7 - 4 2 - - SSW 1007,7 0 0,2
19.06.2019 12:00:00 18,6 15,2 - 2 1 - - NNW 1007,1 18 0,0
19.06.2019 11:00:00 16,8 14,8 - 5 3 - - N 1007,3 18 0,0
19.06.2019 10:00:00 15,1 14,2 17,0 4 2 - - N 1007,3 0 0,2
19.06.2019 09:00:00 14,6 13,9 - 4 2 - - NW 1007,2 0 0,6
19.06.2019 08:00:00 14,5 13,7 - 2 1 - - W 1007,7 0 1,0
19.06.2019 07:00:00 14,3 13,3 - 9 5 - - NNE 1006,6 6 0,0
19.06.2019 06:00:00 13,9 13,1 - 8 4 - - N 1006,4 0 0,0
19.06.2019 05:00:00 13,9 12,8 - 8 4 - - N 1006,4 0 0,0
19.06.2019 04:00:00 13,2 12,4 - 5 3 - - WNW 1007,1 0 0,0
19.06.2019 03:00:00 13,6 12,4 - 2 1 - - NNE 1007,6 0 0,0
19.06.2019 02:00:00 13,9 12,3 - 4 2 - - ENE 1008,5 0 0,0
19.06.2019 01:00:00 14,5 12,0 - 5 3 - - NNE 1009,2 - 0,0
19.06.2019 00:00:00 15,0 12,3 - 9 5 - - SSE 1011,0 0 0,0
18.06.2019 23:00:00 15,5 10,8 - 8 4 - - NNE 1010,0 0 0,0
18.06.2019 22:00:00 15,5 10,7 - 8 4 - - NE 1010,7 6 0,0
18.06.2019 21:00:00 16,0 11,0 - 5 3 - - NE 1010,8 0 0,0
18.06.2019 20:00:00 16,6 11,5 - 5 3 - - E 1011,1 0 0,2
18.06.2019 19:00:00 16,9 11,5 - 9 5 - - NE 1011,6 0 0,0
18.06.2019 18:00:00 18,1 13,5 - 9 5 - - ENE 1011,8 0 0,0
18.06.2019 17:00:00 17,8 13,6 - 8 4 - - ENE 1012,2 0 0,0
18.06.2019 16:00:00 18,3 14,9 - 9 5 - - NE 1012,8 0 0,0
18.06.2019 15:00:00 17,7 14,4 - 13 7 - - NNE 1013,2 0 0,8
18.06.2019 14:00:00 17,1 12,3 - 15 8 - - WNW 1014,4 0 0,0
18.06.2019 13:00:00 19,6 11,6 - 4 2 - - SE 1014,2 0 0,0
18.06.2019 12:00:00 18,8 11,2 - 8 4 - - SW 1015,1 30 0,0
18.06.2019 11:00:00 20,2 11,6 - 4 2 - - S 1014,8 48 0,0
18.06.2019 10:00:00 17,3 11,6 16,9 8 4 - - SSW 1015,3 30 0,0
18.06.2019 09:00:00 17,3 11,2 - 4 2 - - E 1015,5 48 0,0
18.06.2019 08:00:00 14,9 11,2 - 2 1 - - N 1015,9 54 0,0
18.06.2019 07:00:00 12,8 11,5 - 2 1 - - NE 1016,0 54 0,0
18.06.2019 06:00:00 10,6 10,2 - 0 0 - - N 1016,1 30 0,0
18.06.2019 05:00:00 10,4 10,0 - 2 1 - - WNW 1016,2 6 0,0
18.06.2019 04:00:00 10,3 9,7 - 4 2 - - SE 1016,4 0 0,0
18.06.2019 03:00:00 9,7 9,0 - 4 2 - - S 1016,4 0 0,0
18.06.2019 02:00:00 10,4 9,3 - 5 3 - - S 1016,7 0 0,0
18.06.2019 01:00:00 11,3 9,6 - 8 4 - - SW 1017,3 - 0,0
18.06.2019 00:00:00 12,2 10,2 - 5 3 - - WSW 1017,2 0 0,0
17.06.2019 23:00:00 12,5 9,7 - 11 6 - - SSW 1017,5 0 0,0
17.06.2019 22:00:00 13,6 9,7 - 8 4 - - S 1017,2 24 0,0
17.06.2019 21:00:00 15,6 9,8 - 8 4 - - SW 1016,9 36 0,0
17.06.2019 20:00:00 16,6 9,7 - 11 6 - - SW 1016,9 0 0,0
17.06.2019 19:00:00 17,6 9,4 - 13 7 - - SW 1017,0 0 0,0
17.06.2019 18:00:00 18,6 9,6 - 16 9 - - SW 1017,0 48 0,0
17.06.2019 17:00:00 19,9 10,1 - 18 10 - - SW 1017,1 48 0,0
17.06.2019 16:00:00 20,3 10,8 - 15 8 - - WSW 1017,3 48 0,0
17.06.2019 15:00:00 20,0 10,8 - 18 10 - - SW 1017,7 54 0,0
17.06.2019 14:00:00 20,2 12,1 - 16 9 - - SW - 48 0,0
17.06.2019 13:00:00 19,1 10,8 - 16 9 - - SW - 48 0,0
17.06.2019 12:00:00 19,5 10,8 - 13 7 - - SW - 42 0,0
17.06.2019 11:00:00 19,2 10,8 - 16 9 - - SW - 54 0,0
17.06.2019 10:00:00 18,8 11,8 16,0 15 8 - - SSW - 42 0,0
17.06.2019 09:00:00 17,4 12,3 - 11 6 - - SSW 1019,1 54 0,0
17.06.2019 08:00:00 15,8 12,6 - 11 6 - - SSW 1019,4 42 0,0
17.06.2019 07:00:00 13,5 12,1 - 5 3 - - SSW 1019,1 6 0,0
17.06.2019 06:00:00 12,2 11,5 - 5 3 - - SSW 1019,0 6 0,0
17.06.2019 05:00:00 12,3 11,1 - 8 4 - - S 1018,9 6 0,0
17.06.2019 04:00:00 12,4 11,5 - 8 4 - - S 1018,9 0 0,0
17.06.2019 03:00:00 12,0 10,8 - 5 3 - - S 1019,0 0 0,0
17.06.2019 02:00:00 12,4 11,2 - 9 5 - - S 1019,3 0 0,0
17.06.2019 01:00:00 12,1 10,9 - 9 5 - - S 1019,4 - 0,0
17.06.2019 00:00:00 12,3 10,9 - 9 5 - - S 1019,2 0 0,0
16.06.2019 23:00:00 12,8 10,8 - 8 4 - - S 1019,5 0 0,0
16.06.2019 22:00:00 14,3 11,3 - 8 4 - - SSW 1019,4 6 0,0
16.06.2019 21:00:00 15,1 10,9 - 9 5 - - SSW 1019,1 48 0,0
16.06.2019 20:00:00 16,6 11,1 - 15 8 - - SSW 1019,0 18 0,0
16.06.2019 19:00:00 17,6 11,2 - 21 11 - - SW 1018,8 54 0,0
16.06.2019 18:00:00 18,9 12,0 - 16 9 - - WSW 1018,3 48 0,0
16.06.2019 17:00:00 17,4 12,2 - 16 9 - - SW 1018,6 12 0,0
16.06.2019 16:00:00 17,9 13,2 - 18 10 - - WSW 1018,2 18 0,0
16.06.2019 15:00:00 17,1 12,5 - 22 12 48 26 WSW 1018,2 12 0,0
16.06.2019 14:00:00 17,5 13,3 - 22 12 - - SW 1017,8 24 0,0
16.06.2019 13:00:00 16,4 13,9 - 24 13 46 25 SW 1017,6 6 0,4
16.06.2019 12:00:00 15,3 13,3 - 16 9 - - SSW 1017,6 18 0,4
16.06.2019 11:00:00 16,4 12,8 - 24 13 - - SW 1017,5 12 0,0
16.06.2019 10:00:00 14,6 12,5 16,0 21 11 - - SSW 1017,5 0 0,0
16.06.2019 09:00:00 15,4 11,9 - 16 9 - - SSW 1017,3 24 0,0
16.06.2019 08:00:00 14,2 12,9 - 11 6 - - S 1017,2 36 0,0
16.06.2019 07:00:00 12,6 12,3 - 9 5 - - S 1016,8 24 0,0
16.06.2019 06:00:00 11,2 11,1 - 4 2 - - S 1016,5 42 0,2
16.06.2019 05:00:00 9,1 8,7 - 8 4 - - SSW 1016,5 6 0,0
16.06.2019 04:00:00 10,2 9,8 - 8 4 - - S 1016,3 0 0,0
16.06.2019 03:00:00 10,6 10,0 - 4 2 - - W 1016,1 0 0,0
16.06.2019 02:00:00 11,6 10,9 - 9 5 - - SW 1015,7 0 0,0
16.06.2019 01:00:00 12,4 11,6 - 9 5 - - SW 1015,6 - 0,0
16.06.2019 00:00:00 12,5 11,7 - 11 6 - - SSW 1015,2 0 0,0
15.06.2019 23:00:00 12,5 11,7 - 9 5 - - SSW 1014,9 0 0,0
15.06.2019 22:00:00 13,1 12,2 - 11 6 - - SSW 1014,7 12 0,0
15.06.2019 21:00:00 13,3 12,6 - 13 7 - - SSW 1014,3 6 0,4
15.06.2019 20:00:00 13,2 12,4 - 13 7 - - SSW 1014,5 0 1,2
15.06.2019 19:00:00 13,7 12,1 - 16 9 - - SSW 1014,5 0 0,4
15.06.2019 18:00:00 15,8 11,2 - 22 12 - - SSW 1014,2 6 0,0
15.06.2019 17:00:00 16,6 10,9 - 21 11 - - SW 1014,1 18 0,0
15.06.2019 16:00:00 16,2 10,4 - 22 12 - - SSW 1014,3 12 0,0
15.06.2019 15:00:00 17,3 9,8 - 21 11 - - SSW 1014,1 6 0,0
15.06.2019 14:00:00 18,2 8,8 - 24 13 - - SW 1013,9 42 0,0
15.06.2019 13:00:00 18,7 9,6 - 22 12 - - SSW 1013,7 42 0,0
15.06.2019 12:00:00 17,9 10,1 - 21 11 - - SSW 1013,4 36 0,0
15.06.2019 11:00:00 16,7 10,3 - 18 10 - - SSW 1013,3 18 0,0
15.06.2019 10:00:00 17,5 10,2 15,9 16 9 - - SW 1013,2 36 0,0
15.06.2019 09:00:00 16,3 11,2 - 9 5 - - SSW 1013,2 60 0,0
15.06.2019 08:00:00 14,9 10,4 - 9 5 - - SW 1012,9 48 0,0
15.06.2019 07:00:00 12,1 10,6 - 0 0 - - N 1012,9 0 0,0
15.06.2019 06:00:00 11,6 10,7 - 2 1 - - S 1012,9 0 0,0
15.06.2019 05:00:00 11,5 10,4 - 2 1 - - SSW 1012,8 0 0,0
15.06.2019 04:00:00 11,6 10,3 - 9 5 - - SE 1012,6 0 0,0
15.06.2019 03:00:00 11,1 9,9 - 5 3 - - S 1012,3 0 0,0
15.06.2019 02:00:00 11,1 9,8 - 4 2 - - WSW 1012,5 0 0,0
15.06.2019 01:00:00 12,5 9,8 - 2 1 - - S 1012,8 - 0,0
15.06.2019 00:00:00 13,0 9,7 - 8 4 - - SSW 1012,8 0 0,0
14.06.2019 23:00:00 13,3 9,8 - 5 3 - - SSW 1012,9 0 0,0
14.06.2019 22:00:00 13,8 9,6 - 9 5 - - SSE 1012,8 24 0,0
14.06.2019 21:00:00 15,4 9,6 - 8 4 - - SSW 1012,4 60 0,0
14.06.2019 20:00:00 16,5 9,3 - 13 7 - - SW 1012,2 60 0,0
14.06.2019 19:00:00 17,6 9,7 - 13 7 - - SW 1012,1 36 0,0
14.06.2019 18:00:00 17,8 9,8 - 18 10 - - SW 1011,8 18 0,0
14.06.2019 17:00:00 17,3 10,0 - 21 11 - - SW 1011,9 18 0,0
14.06.2019 16:00:00 17,0 10,2 - 22 12 - - SSW 1012,2 42 0,0
14.06.2019 15:00:00 17,5 10,4 - 24 13 - - SSW 1012,1 36 0,0
14.06.2019 14:00:00 17,3 11,3 - 18 10 - - SW 1012,0 18 0,0
14.06.2019 13:00:00 16,3 10,8 - 24 13 - - SW 1012,0 36 0,0

tt = temperature
td = dewpoint
tt -20cm = temperature -20cm
ff = wind speed
fx = gusts
dd = wind direction
ppp = reduced air pressure
sd = sunshine duration
rr = precipitation

Next stations